Pagrindinis puslapis
METAR-TAF:

METAR-TAF

Oro uostai :

King Cove, Aliaska, Jungtinės Amerikos Valstijos

platuma: 55-06-59N, ilguma: 162-15-58W, Aukštis: 47 m

Dabartinis oras

Ataskaita buvo paskelbta 7 minutes, ne 06:56 UTC
Vėjas 10 kt iš Vakarų
Temperatūra -2°C
Drėgmė 100%
Slėgis 1014 hPa
Matomumas: 16.1 km
Mažai debesys ne aukštis 700 ft

METAR: PAVC 280656Z AUTO 26010KT 10SM FEW007 M02/M02 A2993 RMK AO2 SLP136 T10171022 FZRANO

Laikas: 22:03 (07:03 UTC)


TAF: trūkstamas

Orai ataskaitas ir orų prognozės (METAR, TAF).

turimą stotys yra geltonos ir raudonos taškus žemėlapyje.

Perkelti pele per norėdami pamatyti stoties vardą.

Tada spustelėkite, norėdami matyti oro stebėjimo ir prognozės.

Norėdami pakeisti žemėlapį: spustelėkite ant žalios mygtukų su juodo kryžiaus žemyn,; žalią mygtuką su brūkšneliu, jei norite nutolinti; arba žalių rodyklių gretimoms žemėlapius.


METAR-TAF: